createdAt,value
2022-08-20T00:01:02.341Z,7.55
2022-08-20T00:03:10.710Z,6.75
2022-08-20T00:05:13.315Z,14.48
2022-08-20T00:07:15.324Z,11.13
2022-08-20T00:09:17.013Z,15.10
2022-08-20T00:11:22.923Z,14.38
2022-08-20T00:13:36.159Z,13.02
2022-08-20T00:15:38.834Z,12.80
2022-08-20T00:17:41.017Z,17.02
2022-08-20T00:19:42.626Z,24.75
2022-08-20T00:21:44.229Z,23.40
2022-08-20T00:23:51.456Z,25.23
2022-08-20T00:25:53.361Z,16.17
2022-08-20T00:27:56.252Z,14.80
2022-08-20T00:29:57.885Z,16.27
2022-08-20T00:31:59.658Z,12.63
2022-08-20T00:34:01.244Z,10.55
2022-08-20T00:36:06.616Z,12.45
2022-08-20T00:38:08.229Z,15.68
2022-08-20T00:40:22.391Z,12.68
2022-08-20T00:42:25.448Z,11.00
2022-08-20T00:44:27.466Z,11.05
2022-08-20T00:46:32.090Z,14.35
2022-08-20T00:48:35.640Z,36.10
2022-08-20T00:50:37.896Z,17.95
2022-08-20T00:52:42.272Z,20.55
2022-08-20T00:54:58.728Z,19.77
2022-08-20T00:57:06.056Z,24.60
2022-08-20T00:59:13.050Z,20.40
2022-08-20T01:01:15.817Z,20.10
2022-08-20T01:03:20.564Z,21.42
2022-08-20T01:05:29.571Z,15.95
2022-08-20T01:07:33.570Z,21.73
2022-08-20T01:09:57.794Z,26.40
2022-08-20T01:11:57.922Z,20.33
2022-08-20T01:14:01.039Z,21.48
2022-08-20T01:16:04.089Z,23.95
2022-08-20T01:18:06.459Z,25.45
2022-08-20T01:20:12.427Z,28.52
2022-08-20T01:22:38.390Z,26.27
2022-08-20T01:24:41.170Z,28.38
2022-08-20T01:26:44.848Z,21.70
2022-08-20T01:28:55.916Z,26.35
2022-08-20T01:30:57.921Z,25.23
2022-08-20T01:32:59.519Z,21.27
2022-08-20T01:35:01.068Z,15.45
2022-08-20T01:37:02.891Z,21.50
2022-08-20T01:39:07.809Z,23.45
2022-08-20T01:41:35.272Z,21.30
2022-08-20T01:43:37.474Z,19.45
2022-08-20T01:45:40.218Z,20.48
2022-08-20T01:47:41.915Z,17.67
2022-08-20T01:49:51.047Z,21.20
2022-08-20T01:51:55.074Z,16.83
2022-08-20T01:53:59.863Z,24.90
2022-08-20T01:56:03.177Z,25.33
2022-08-20T01:58:04.891Z,31.05
2022-08-20T02:00:19.786Z,25.50
2022-08-20T02:02:22.876Z,21.85
2022-08-20T02:04:24.698Z,27.38
2022-08-20T02:06:27.199Z,28.98
2022-08-20T02:08:29.108Z,19.65
2022-08-20T02:10:31.820Z,27.50
2022-08-20T02:12:33.606Z,18.60
2022-08-20T02:14:37.113Z,31.88
2022-08-20T02:16:41.479Z,24.33
2022-08-20T02:18:43.084Z,24.63
2022-08-20T02:20:45.065Z,24.65
2022-08-20T02:22:55.403Z,23.02
2022-08-20T02:24:57.055Z,30.05
2022-08-20T02:26:58.729Z,30.35
2022-08-20T02:29:01.081Z,25.83
2022-08-20T02:31:07.893Z,22.42
2022-08-20T02:33:12.387Z,30.92
2022-08-20T02:35:15.039Z,26.83
2022-08-20T02:37:18.630Z,27.65
2022-08-20T02:39:20.276Z,24.85
2022-08-20T02:41:22.100Z,27.55
2022-08-20T02:43:23.847Z,20.15
2022-08-20T02:45:25.554Z,25.73
2022-08-20T02:47:27.869Z,22.08
2022-08-20T02:49:29.522Z,21.30
2022-08-20T02:51:31.278Z,25.35
2022-08-20T02:53:36.133Z,31.58
2022-08-20T02:55:37.731Z,29.38
2022-08-20T02:57:39.675Z,40.85
2022-08-20T02:59:41.221Z,41.85
2022-08-20T03:01:42.858Z,36.03
2022-08-20T03:03:45.400Z,38.08
2022-08-20T03:05:46.965Z,28.52
2022-08-20T03:07:53.531Z,37.85
2022-08-20T03:09:55.130Z,33.72
2022-08-20T03:11:56.734Z,35.58
2022-08-20T03:13:58.533Z,36.10
2022-08-20T03:16:01.551Z,33.63
2022-08-20T03:18:03.165Z,31.92
2022-08-20T03:20:07.495Z,34.47
2022-08-20T03:22:09.054Z,30.95
2022-08-20T03:24:10.648Z,38.17
2022-08-20T03:26:13.174Z,28.98
2022-08-20T03:28:15.388Z,30.65
2022-08-20T03:30:18.106Z,33.05
2022-08-20T03:32:19.768Z,39.33
2022-08-20T03:34:21.333Z,32.13
2022-08-20T03:36:28.152Z,35.55
2022-08-20T03:38:33.196Z,31.90
2022-08-20T03:40:35.915Z,31.08
2022-08-20T03:42:39.286Z,35.53
2022-08-20T03:44:40.885Z,36.22
2022-08-20T03:46:42.459Z,36.92
2022-08-20T03:48:44.096Z,35.67
2022-08-20T03:50:46.596Z,33.88
2022-08-20T03:52:48.165Z,34.17
2022-08-20T03:54:50.015Z,37.75
2022-08-20T03:56:51.950Z,39.58
2022-08-20T03:58:53.800Z,37.40
2022-08-20T04:00:56.221Z,31.20
2022-08-20T04:02:57.930Z,33.60
2022-08-20T04:04:59.480Z,44.38
2022-08-20T04:07:01.321Z,39.58
2022-08-20T04:09:03.392Z,45.75
2022-08-20T04:11:04.982Z,38.13
2022-08-20T04:13:07.233Z,38.35
2022-08-20T04:15:12.443Z,35.40
2022-08-20T04:17:14.408Z,41.35
2022-08-20T04:19:16.196Z,42.75
2022-08-20T04:21:17.756Z,43.70
2022-08-20T04:23:21.224Z,39.80
2022-08-20T04:25:23.935Z,40.03
2022-08-20T04:27:25.586Z,35.15
2022-08-20T04:29:32.388Z,32.60
2022-08-20T04:31:34.901Z,32.72
2022-08-20T04:33:36.455Z,35.88
2022-08-20T04:35:38.145Z,29.40
2022-08-20T04:37:39.731Z,31.42
2022-08-20T04:39:41.339Z,32.35
2022-08-20T04:41:43.438Z,27.13
2022-08-20T04:43:45.015Z,30.15
2022-08-20T04:45:47.310Z,21.80
2022-08-20T04:47:49.812Z,19.42
2022-08-20T04:49:51.356Z,21.92
2022-08-20T04:51:59.497Z,21.23
2022-08-20T04:54:02.545Z,24.73
2022-08-20T04:56:04.505Z,20.33
2022-08-20T04:58:10.984Z,17.52
2022-08-20T05:00:17.236Z,19.50
2022-08-20T05:02:20.258Z,24.60
2022-08-20T05:04:21.817Z,19.65
2022-08-20T05:06:25.938Z,25.63
2022-08-20T05:08:28.061Z,33.95
2022-08-20T05:10:30.120Z,21.13
2022-08-20T05:12:31.685Z,24.77
2022-08-20T05:14:33.647Z,20.08
2022-08-20T05:16:39.570Z,24.17
2022-08-20T05:18:41.387Z,24.48
2022-08-20T05:20:43.019Z,18.17
2022-08-20T05:22:44.716Z,22.52
2022-08-20T05:24:46.385Z,23.08
2022-08-20T05:26:47.970Z,17.77
2022-08-20T05:28:57.334Z,22.33
2022-08-20T05:31:01.144Z,17.90
2022-08-20T05:33:05.120Z,17.15
2022-08-20T05:35:09.692Z,16.15
2022-08-20T05:37:11.386Z,17.60
2022-08-20T05:39:14.470Z,19.98
2022-08-20T05:41:28.827Z,20.65
2022-08-20T05:43:33.695Z,25.42
2022-08-20T05:45:37.556Z,20.02
2022-08-20T05:47:42.660Z,20.02
2022-08-20T05:49:46.466Z,17.73
2022-08-20T05:51:49.485Z,19.73
2022-08-20T05:53:51.047Z,19.30
2022-08-20T05:55:53.110Z,16.17
2022-08-20T05:58:03.154Z,16.98
2022-08-20T06:00:08.323Z,14.07
2022-08-20T06:02:29.911Z,19.20
2022-08-20T06:04:32.193Z,19.75
2022-08-20T06:06:44.497Z,14.90
2022-08-20T06:08:48.340Z,13.70
2022-08-20T06:10:50.027Z,14.65
2022-08-20T06:12:53.349Z,14.13
2022-08-20T06:14:54.883Z,12.95
2022-08-20T06:17:02.858Z,12.27
2022-08-20T06:19:05.637Z,20.23
2022-08-20T06:21:07.210Z,18.92
2022-08-20T06:23:08.839Z,17.45
2022-08-20T06:25:10.650Z,12.18
2022-08-20T06:27:14.871Z,14.38
2022-08-20T06:29:16.417Z,12.23
2022-08-20T06:31:18.622Z,9.70
2022-08-20T06:33:20.216Z,14.27
2022-08-20T06:35:21.860Z,16.45
2022-08-20T06:37:30.887Z,11.10
2022-08-20T06:39:33.392Z,14.43
2022-08-20T06:41:36.978Z,16.10
2022-08-20T06:43:38.798Z,11.23
2022-08-20T06:45:40.642Z,13.27
2022-08-20T06:47:44.174Z,16.20
2022-08-20T06:49:47.555Z,17.45
2022-08-20T06:51:51.895Z,11.93
2022-08-20T06:53:53.848Z,11.98
2022-08-20T06:55:56.363Z,19.50
2022-08-20T06:58:03.331Z,13.75
2022-08-20T07:00:07.729Z,11.98
2022-08-20T07:02:09.323Z,10.68
2022-08-20T07:04:10.976Z,13.60
2022-08-20T07:06:12.542Z,12.52
2022-08-20T07:08:16.588Z,15.68
2022-08-20T07:10:20.040Z,14.07
2022-08-20T07:12:21.569Z,13.15
2022-08-20T07:14:23.205Z,12.45
2022-08-20T07:16:25.719Z,18.02
2022-08-20T07:18:28.826Z,13.75
2022-08-20T07:20:32.153Z,9.77
2022-08-20T07:22:36.962Z,15.10
2022-08-20T07:24:41.129Z,13.73
2022-08-20T07:26:43.847Z,14.68
2022-08-20T07:28:45.800Z,9.95
2022-08-20T07:31:13.661Z,14.25
2022-08-20T07:33:17.450Z,14.60
2022-08-20T07:35:20.169Z,14.55
2022-08-20T07:37:25.246Z,14.80
2022-08-20T07:39:28.442Z,12.02
2022-08-20T07:41:31.617Z,13.30
2022-08-20T07:43:33.369Z,14.82
2022-08-20T07:45:35.840Z,13.35
2022-08-20T07:47:39.317Z,15.15
2022-08-20T07:49:41.105Z,17.50
2022-08-20T07:51:42.968Z,14.35
2022-08-20T07:53:46.352Z,13.48
2022-08-20T07:55:52.828Z,16.08
2022-08-20T07:58:07.706Z,11.68
2022-08-20T08:00:11.606Z,13.82
2022-08-20T08:02:13.172Z,12.77
2022-08-20T08:04:16.538Z,15.50
2022-08-20T08:06:29.646Z,16.67
2022-08-20T08:08:33.143Z,14.00
2022-08-20T08:10:36.712Z,14.07
2022-08-20T08:12:43.136Z,14.30
2022-08-20T08:14:47.079Z,10.02
2022-08-20T08:16:49.092Z,15.85
2022-08-20T08:18:56.970Z,18.17
2022-08-20T08:20:58.589Z,12.32
2022-08-20T08:23:00.826Z,12.25
2022-08-20T08:25:02.810Z,11.80
2022-08-20T08:27:04.781Z,18.35
2022-08-20T08:29:10.043Z,10.80
2022-08-20T08:31:11.690Z,13.07
2022-08-20T08:33:27.718Z,16.23
2022-08-20T08:35:31.561Z,12.45
2022-08-20T08:37:33.235Z,13.95
2022-08-20T08:39:35.100Z,15.02
2022-08-20T08:41:42.029Z,27.25
2022-08-20T08:43:48.870Z,19.48
2022-08-20T08:46:05.377Z,25.35
2022-08-20T08:48:07.940Z,18.42
2022-08-20T08:50:33.369Z,21.65
2022-08-20T08:52:44.223Z,35.20
2022-08-20T08:54:52.426Z,34.20
2022-08-20T08:56:54.636Z,37.95
2022-08-20T08:59:05.156Z,76.88
2022-08-20T09:01:54.682Z,31.35
2022-08-20T09:03:38.377Z,17.63
2022-08-20T09:05:43.390Z,12.82
2022-08-20T09:07:49.039Z,16.10
2022-08-20T09:09:50.988Z,14.45
2022-08-20T09:11:56.097Z,17.60
2022-08-20T09:13:58.621Z,16.77
2022-08-20T09:16:00.498Z,32.53
2022-08-20T09:18:02.271Z,20.98
2022-08-20T09:20:04.570Z,16.25
2022-08-20T09:22:11.072Z,16.40
2022-08-20T09:24:12.903Z,17.40
2022-08-20T09:26:14.496Z,14.88
2022-08-20T09:28:16.069Z,17.90
2022-08-20T09:30:18.529Z,17.65
2022-08-20T09:32:22.383Z,20.77
2022-08-20T09:34:24.924Z,23.50
2022-08-20T09:36:32.482Z,17.48
2022-08-20T09:38:34.612Z,20.67
2022-08-20T09:40:36.184Z,17.67
2022-08-20T09:42:41.333Z,17.60
2022-08-20T09:44:43.666Z,16.50
2022-08-20T09:46:45.352Z,17.35
2022-08-20T09:48:47.055Z,23.10
2022-08-20T09:50:49.613Z,13.82
2022-08-20T09:52:53.635Z,13.05
2022-08-20T09:55:01.525Z,16.63
2022-08-20T09:57:06.176Z,18.00
2022-08-20T09:59:07.872Z,17.42
2022-08-20T10:01:15.016Z,12.98
2022-08-20T10:03:16.812Z,15.63
2022-08-20T10:05:18.441Z,12.13
2022-08-20T10:07:20.856Z,18.08
2022-08-20T10:09:23.300Z,20.58
2022-08-20T10:11:24.835Z,17.48
2022-08-20T10:13:26.625Z,15.75
2022-08-20T10:15:29.097Z,20.63
2022-08-20T10:17:30.774Z,14.80
2022-08-20T10:19:32.840Z,16.98
2022-08-20T10:21:38.621Z,19.77
2022-08-20T10:23:40.743Z,15.60
2022-08-20T10:25:43.005Z,16.13
2022-08-20T10:27:44.916Z,17.33
2022-08-20T10:29:47.128Z,14.82
2022-08-20T10:31:48.951Z,16.25
2022-08-20T10:33:50.587Z,15.07
2022-08-20T10:35:54.758Z,11.88
2022-08-20T10:38:01.564Z,15.15
2022-08-20T10:40:04.155Z,14.63
2022-08-20T10:42:06.493Z,13.90
2022-08-20T10:44:08.751Z,17.00
2022-08-20T10:46:10.343Z,19.95
2022-08-20T10:48:11.933Z,13.68
2022-08-20T10:50:16.003Z,13.50
2022-08-20T10:52:18.038Z,33.40
2022-08-20T10:54:19.767Z,17.40
2022-08-20T10:56:21.295Z,12.35
2022-08-20T10:58:23.857Z,23.63
2022-08-20T11:00:25.973Z,16.52
2022-08-20T11:02:28.593Z,16.77
2022-08-20T11:04:36.247Z,13.95
2022-08-20T11:06:37.787Z,25.67
2022-08-20T11:08:39.449Z,24.48
2022-08-20T11:10:41.427Z,15.07
2022-08-20T11:12:46.094Z,1999.90
2022-08-20T11:14:49.124Z,1999.90
2022-08-20T11:16:50.702Z,1999.90
2022-08-20T11:18:52.266Z,1999.90
2022-08-20T11:20:53.855Z,1999.90
2022-08-20T11:22:55.929Z,1999.90
2022-08-20T11:24:57.517Z,50.80
2022-08-20T11:26:59.309Z,20.08
2022-08-20T11:29:00.928Z,19.55
2022-08-20T11:31:02.579Z,17.92
2022-08-20T11:33:04.779Z,21.42
2022-08-20T11:35:38.481Z,18.15
2022-08-20T11:37:28.439Z,21.63
2022-08-20T11:39:30.514Z,20.52
2022-08-20T11:41:32.061Z,20.58
2022-08-20T11:43:33.598Z,13.40
2022-08-20T11:45:37.871Z,16.58
2022-08-20T11:47:39.666Z,17.83
2022-08-20T11:49:41.364Z,15.52
2022-08-20T11:51:49.087Z,20.55
2022-08-20T11:53:51.843Z,11.83
2022-08-20T11:55:53.547Z,18.70
2022-08-20T11:57:55.195Z,14.35
2022-08-20T12:00:05.344Z,16.42
2022-08-20T12:02:11.678Z,13.93
2022-08-20T12:04:14.837Z,19.67
2022-08-20T12:06:16.605Z,19.95
2022-08-20T12:08:27.185Z,21.42
2022-08-20T12:10:30.619Z,18.70
2022-08-20T12:12:32.884Z,17.80
2022-08-20T12:14:34.710Z,21.50
2022-08-20T12:16:36.960Z,20.55
2022-08-20T12:18:38.649Z,19.63
2022-08-20T12:20:40.333Z,21.23
2022-08-20T12:22:42.013Z,25.70
2022-08-20T12:24:43.581Z,21.95
2022-08-20T12:26:47.949Z,16.58
2022-08-20T12:28:49.899Z,20.25
2022-08-20T12:30:51.441Z,23.38
2022-08-20T12:32:53.074Z,26.83
2022-08-20T12:34:55.118Z,19.98
2022-08-20T12:37:05.330Z,19.80
2022-08-20T12:39:07.979Z,25.63
2022-08-20T12:41:10.280Z,22.33
2022-08-20T12:43:11.909Z,25.55
2022-08-20T12:45:13.466Z,21.92
2022-08-20T12:47:35.746Z,17.10
2022-08-20T12:49:37.857Z,16.30
2022-08-20T12:51:39.506Z,19.27
2022-08-20T12:53:41.142Z,20.35
2022-08-20T12:55:42.771Z,16.75
2022-08-20T12:57:47.661Z,22.90
2022-08-20T12:59:49.216Z,17.92
2022-08-20T13:01:52.220Z,19.55
2022-08-20T13:03:54.222Z,14.35
2022-08-20T13:05:55.806Z,17.02
2022-08-20T13:07:57.746Z,14.52
2022-08-20T13:09:59.877Z,19.20
2022-08-20T13:12:01.475Z,15.32
2022-08-20T13:14:10.233Z,24.67
2022-08-20T13:16:11.813Z,14.20
2022-08-20T13:18:13.390Z,16.08
2022-08-20T13:20:16.541Z,9.32
2022-08-20T13:22:18.270Z,17.83
2022-08-20T13:24:20.266Z,16.27
2022-08-20T13:26:22.011Z,14.80
2022-08-20T13:28:24.627Z,14.98
2022-08-20T13:30:26.893Z,14.77
2022-08-20T13:32:28.541Z,17.65
2022-08-20T13:34:30.247Z,14.63
2022-08-20T13:36:32.242Z,16.25
2022-08-20T13:38:33.839Z,21.33
2022-08-20T13:40:35.569Z,20.75
2022-08-20T13:42:37.704Z,18.92
2022-08-20T13:44:39.945Z,14.55
2022-08-20T13:46:41.896Z,17.95
2022-08-20T13:48:43.789Z,20.08
2022-08-20T13:50:47.177Z,21.50
2022-08-20T13:52:49.114Z,21.88
2022-08-20T13:54:50.841Z,17.13
2022-08-20T13:56:55.073Z,23.58
2022-08-20T13:58:56.727Z,14.75
2022-08-20T14:00:58.546Z,17.55
2022-08-20T14:03:01.737Z,20.55
2022-08-20T14:05:03.543Z,22.00
2022-08-20T14:07:26.774Z,19.20
2022-08-20T14:09:31.719Z,20.95
2022-08-20T14:11:33.586Z,18.05
2022-08-20T14:13:35.239Z,16.20
2022-08-20T14:15:37.816Z,19.90
2022-08-20T14:17:42.031Z,14.15
2022-08-20T14:19:44.477Z,18.30
2022-08-20T14:21:46.192Z,20.17
2022-08-20T14:23:47.738Z,16.25
2022-08-20T14:25:50.208Z,20.48
2022-08-20T14:27:52.974Z,17.10
2022-08-20T14:29:54.765Z,18.77
2022-08-20T14:31:56.382Z,18.42
2022-08-20T14:33:58.216Z,18.85
2022-08-20T14:35:59.769Z,21.45
2022-08-20T14:38:02.453Z,25.15
2022-08-20T14:40:10.548Z,18.00
2022-08-20T14:42:13.003Z,13.68
2022-08-20T14:44:14.762Z,18.02
2022-08-20T14:46:16.332Z,15.55
2022-08-20T14:48:17.982Z,21.90
2022-08-20T14:50:30.251Z,15.15
2022-08-20T14:52:36.407Z,18.45
2022-08-20T14:54:38.333Z,18.58
2022-08-20T14:56:39.964Z,21.83
2022-08-20T14:58:41.552Z,19.50
2022-08-20T15:00:43.927Z,14.05
2022-08-20T15:02:46.284Z,18.92
2022-08-20T15:04:52.273Z,20.42
2022-08-20T15:06:55.882Z,19.45
2022-08-20T15:09:02.384Z,19.10
2022-08-20T15:11:07.635Z,13.32
2022-08-20T15:13:09.219Z,19.05
2022-08-20T15:15:15.998Z,17.60
2022-08-20T15:17:23.138Z,14.43
2022-08-20T15:19:24.688Z,16.83
2022-08-20T15:21:27.023Z,14.05
2022-08-20T15:23:28.607Z,16.23
2022-08-20T15:25:36.390Z,13.20
2022-08-20T15:27:39.194Z,20.20
2022-08-20T15:29:40.801Z,13.57
2022-08-20T15:31:42.383Z,17.60
2022-08-20T15:33:46.425Z,17.77
2022-08-20T15:35:48.050Z,17.85
2022-08-20T15:37:50.479Z,22.48
2022-08-20T15:39:52.922Z,25.58
2022-08-20T15:41:54.515Z,29.77
2022-08-20T15:43:58.093Z,27.27
2022-08-20T15:46:00.868Z,15.93
2022-08-20T15:48:11.285Z,21.92
2022-08-20T15:50:18.456Z,19.00
2022-08-20T15:52:20.092Z,22.67
2022-08-20T15:54:24.171Z,34.72
2022-08-20T15:56:33.599Z,29.27
2022-08-20T15:59:21.797Z,25.30
2022-08-20T16:01:48.737Z,24.45
2022-08-20T16:03:56.515Z,16.05
2022-08-20T16:06:01.653Z,16.50
2022-08-20T16:08:09.163Z,22.23
2022-08-20T16:10:43.266Z,20.02
2022-08-20T16:12:49.072Z,21.58
2022-08-20T16:14:52.296Z,23.00
2022-08-20T16:17:19.227Z,25.70
2022-08-20T16:19:23.983Z,23.90
2022-08-20T16:21:37.725Z,26.55
2022-08-20T16:23:41.227Z,23.85
2022-08-20T16:25:51.631Z,21.63
2022-08-20T16:28:24.724Z,24.98
2022-08-20T16:30:40.417Z,26.40
2022-08-20T16:32:47.446Z,25.08
2022-08-20T16:34:59.682Z,23.70
2022-08-20T16:37:31.216Z,22.90
2022-08-20T16:40:11.424Z,26.88
2022-08-20T16:42:13.425Z,24.67
2022-08-20T16:44:20.785Z,21.95
2022-08-20T16:46:26.961Z,23.38
2022-08-20T16:48:35.641Z,23.50
2022-08-20T16:51:07.321Z,24.02
2022-08-20T16:53:18.529Z,26.73
2022-08-20T16:55:22.565Z,28.75
2022-08-20T16:57:27.039Z,30.17
2022-08-20T16:59:29.338Z,25.13
2022-08-20T17:01:31.665Z,27.88
2022-08-20T17:03:40.043Z,33.38
2022-08-20T17:05:46.035Z,24.80
2022-08-20T17:07:54.054Z,34.00
2022-08-20T17:10:13.412Z,32.97
2022-08-20T17:12:15.046Z,33.45
2022-08-20T17:14:18.500Z,26.52
2022-08-20T17:16:21.226Z,34.50
2022-08-20T17:18:28.738Z,40.15
2022-08-20T17:20:30.386Z,53.35
2022-08-20T17:22:40.825Z,52.38
2022-08-20T17:24:42.537Z,28.15
2022-08-20T17:26:45.972Z,26.27
2022-08-20T17:28:57.717Z,23.15
2022-08-20T17:31:02.267Z,27.25
2022-08-20T17:33:28.774Z,22.63
2022-08-20T17:35:34.387Z,57.85
2022-08-20T17:37:42.020Z,79.57
2022-08-20T17:39:47.088Z,111.90
2022-08-20T17:41:51.486Z,79.03
2022-08-20T17:44:26.423Z,42.25
2022-08-20T17:46:31.074Z,57.78
2022-08-20T17:48:38.014Z,93.80
2022-08-20T17:50:41.141Z,66.82
2022-08-20T17:52:52.279Z,68.90
2022-08-20T17:54:53.886Z,62.50
2022-08-20T17:56:59.804Z,52.53
2022-08-20T17:59:10.546Z,37.00
2022-08-20T18:01:15.105Z,31.98
2022-08-20T18:03:24.206Z,22.70
2022-08-20T18:05:27.909Z,32.93
2022-08-20T18:07:40.445Z,32.63
2022-08-20T18:09:46.688Z,28.08
2022-08-20T18:11:53.836Z,46.95
2022-08-20T18:14:05.380Z,101.07
2022-08-20T18:16:10.217Z,43.83
2022-08-20T18:18:29.493Z,32.55
2022-08-20T18:20:37.394Z,33.58
2022-08-20T18:22:54.787Z,117.35
2022-08-20T18:25:26.523Z,30.98
2022-08-20T18:27:31.765Z,33.22
2022-08-20T18:29:35.662Z,40.67
2022-08-20T18:31:59.013Z,23.50
2022-08-20T18:34:16.542Z,25.00
2022-08-20T18:36:18.015Z,24.05
2022-08-20T18:38:22.289Z,24.23
2022-08-20T18:40:30.104Z,20.60
2022-08-20T18:42:36.940Z,23.15
2022-08-20T18:44:41.614Z,17.50
2022-08-20T18:46:57.238Z,25.88
2022-08-20T18:49:05.271Z,31.88
2022-08-20T18:51:09.737Z,28.23
2022-08-20T18:53:17.355Z,32.42
2022-08-20T18:55:36.159Z,41.10
2022-08-20T18:57:54.785Z,40.72
2022-08-20T18:59:57.592Z,41.65
2022-08-20T19:01:59.338Z,34.90
2022-08-20T19:04:01.936Z,28.50
2022-08-20T19:06:15.769Z,54.38
2022-08-20T19:08:20.662Z,26.98
2022-08-20T19:10:47.303Z,29.58
2022-08-20T19:13:16.105Z,26.73
2022-08-20T19:15:19.549Z,26.87
2022-08-20T19:17:36.688Z,27.92
2022-08-20T19:19:38.602Z,32.08
2022-08-20T19:21:42.748Z,26.80
2022-08-20T19:23:49.391Z,26.63
2022-08-20T19:26:00.866Z,30.30
2022-08-20T19:28:32.650Z,22.17
2022-08-20T19:30:39.531Z,26.90
2022-08-20T19:32:51.649Z,27.67
2022-08-20T19:34:56.302Z,23.15
2022-08-20T19:37:35.783Z,25.98
2022-08-20T19:39:40.709Z,28.17
2022-08-20T19:41:48.051Z,52.42
2022-08-20T19:43:49.810Z,27.17
2022-08-20T19:45:54.463Z,25.67
2022-08-20T19:48:33.567Z,26.98
2022-08-20T19:50:45.432Z,44.20
2022-08-20T19:53:07.926Z,24.80
2022-08-20T19:55:36.171Z,29.23
2022-08-20T19:57:37.726Z,25.27
2022-08-20T19:59:39.387Z,25.92
2022-08-20T20:02:02.545Z,26.20
2022-08-20T20:04:14.151Z,28.75
2022-08-20T20:06:18.937Z,25.42
2022-08-20T20:08:22.497Z,29.23
2022-08-20T20:10:32.459Z,27.27
2022-08-20T20:12:35.039Z,22.63
2022-08-20T20:14:38.674Z,23.30
2022-08-20T20:16:41.734Z,29.25
2022-08-20T20:18:43.413Z,27.92
2022-08-20T20:20:57.500Z,26.48
2022-08-20T20:23:06.590Z,28.27
2022-08-20T20:25:21.509Z,21.45
2022-08-20T20:27:25.466Z,32.85
2022-08-20T20:29:36.042Z,27.90
2022-08-20T20:31:58.749Z,25.73
2022-08-20T20:34:07.761Z,29.23
2022-08-20T20:36:16.666Z,29.30
2022-08-20T20:38:27.516Z,28.65
2022-08-20T20:40:51.979Z,26.77
2022-08-20T20:43:04.337Z,30.90
2022-08-20T20:45:19.423Z,29.60
2022-08-20T20:47:32.806Z,32.38
2022-08-20T20:49:51.913Z,34.15
2022-08-20T20:52:04.067Z,32.75
2022-08-20T20:54:23.351Z,33.75
2022-08-20T20:56:33.937Z,29.75
2022-08-20T20:58:35.465Z,33.08
2022-08-20T21:00:37.045Z,34.78
2022-08-20T21:02:38.679Z,32.00
2022-08-20T21:04:42.636Z,34.60
2022-08-20T21:06:44.491Z,34.08
2022-08-20T21:08:46.045Z,31.98
2022-08-20T21:10:49.036Z,27.38
2022-08-20T21:12:53.148Z,33.03
2022-08-20T21:14:55.070Z,30.33
2022-08-20T21:16:59.755Z,27.73
2022-08-20T21:19:04.067Z,27.40
2022-08-20T21:21:07.260Z,31.98
2022-08-20T21:23:08.855Z,31.98
2022-08-20T21:25:10.484Z,30.10
2022-08-20T21:27:12.777Z,31.60
2022-08-20T21:29:17.117Z,28.85
2022-08-20T21:31:18.661Z,37.67
2022-08-20T21:33:20.262Z,31.10
2022-08-20T21:35:22.219Z,31.25
2022-08-20T21:37:23.832Z,37.58
2022-08-20T21:39:25.919Z,32.67
2022-08-20T21:41:30.175Z,35.17
2022-08-20T21:43:32.864Z,36.17
2022-08-20T21:45:34.795Z,32.78
2022-08-20T21:47:36.549Z,34.95
2022-08-20T21:49:38.106Z,36.47
2022-08-20T21:51:39.673Z,36.50
2022-08-20T21:53:41.250Z,34.45
2022-08-20T21:55:42.823Z,38.33
2022-08-20T21:57:44.916Z,32.40
2022-08-20T21:59:46.468Z,35.97
2022-08-20T22:01:48.320Z,32.83
2022-08-20T22:03:51.672Z,38.67
2022-08-20T22:05:54.098Z,35.55
2022-08-20T22:07:55.688Z,43.03
2022-08-20T22:09:57.284Z,37.05
2022-08-20T22:12:01.058Z,41.15
2022-08-20T22:14:06.494Z,35.58
2022-08-20T22:16:10.066Z,41.72
2022-08-20T22:18:11.822Z,39.38
2022-08-20T22:20:13.381Z,46.22
2022-08-20T22:22:16.051Z,43.22
2022-08-20T22:24:17.757Z,42.53
2022-08-20T22:26:19.652Z,44.22
2022-08-20T22:28:21.214Z,52.22
2022-08-20T22:30:23.160Z,48.08
2022-08-20T22:32:33.554Z,54.45
2022-08-20T22:34:46.443Z,49.42
2022-08-20T22:36:49.006Z,45.25
2022-08-20T22:38:54.628Z,53.10
2022-08-20T22:40:56.445Z,55.83
2022-08-20T22:42:58.083Z,51.10
2022-08-20T22:44:59.774Z,51.00
2022-08-20T22:47:05.028Z,53.35
2022-08-20T22:49:09.385Z,56.45
2022-08-20T22:51:16.432Z,52.95
2022-08-20T22:53:19.827Z,62.92
2022-08-20T22:55:21.458Z,56.45
2022-08-20T22:57:22.998Z,58.20
2022-08-20T22:59:24.816Z,57.05
2022-08-20T23:01:27.505Z,57.45
2022-08-20T23:03:40.195Z,67.78
2022-08-20T23:05:42.318Z,62.40
2022-08-20T23:07:43.920Z,60.60
2022-08-20T23:09:45.748Z,60.17
2022-08-20T23:11:47.314Z,61.78
2022-08-20T23:13:48.902Z,61.28
2022-08-20T23:15:50.605Z,64.68
2022-08-20T23:18:02.974Z,64.75
2022-08-20T23:20:17.093Z,61.72
2022-08-20T23:22:19.579Z,61.90
2022-08-20T23:24:21.598Z,65.95
2022-08-20T23:26:23.363Z,61.95
2022-08-20T23:28:25.853Z,61.72
2022-08-20T23:30:27.821Z,62.40
2022-08-20T23:32:29.395Z,60.58
2022-08-20T23:34:31.061Z,63.33
2022-08-20T23:36:33.020Z,69.15
2022-08-20T23:38:34.756Z,62.67
2022-08-20T23:40:37.017Z,73.13
2022-08-20T23:42:38.940Z,65.93
2022-08-20T23:44:40.565Z,66.53
2022-08-20T23:46:42.148Z,73.03
2022-08-20T23:48:43.778Z,77.07
2022-08-20T23:50:45.324Z,76.32
2022-08-20T23:52:47.387Z,79.30
2022-08-20T23:54:49.154Z,80.70
2022-08-20T23:56:50.734Z,109.35
2022-08-20T23:58:52.958Z,92.97
